sensor_id;sensor_type;location;lat;lon;timestamp;temperature;humidity
25732;DHT22;13585;50.864;4.406;2023-06-14T00:01:21;30.20;34.20
25732;DHT22;13585;50.864;4.406;2023-06-14T00:03:47;30.20;34.20
25732;DHT22;13585;50.864;4.406;2023-06-14T00:06:14;30.20;34.10
25732;DHT22;13585;50.864;4.406;2023-06-14T00:08:39;30.20;34.10
25732;DHT22;13585;50.864;4.406;2023-06-14T00:11:06;30.20;34.20
25732;DHT22;13585;50.864;4.406;2023-06-14T00:13:32;30.20;34.20
25732;DHT22;13585;50.864;4.406;2023-06-14T00:15:57;30.20;34.20
25732;DHT22;13585;50.864;4.406;2023-06-14T00:18:23;30.20;34.20
25732;DHT22;13585;50.864;4.406;2023-06-14T00:20:55;30.20;34.20
25732;DHT22;13585;50.864;4.406;2023-06-14T00:23:21;30.10;34.20
25732;DHT22;13585;50.864;4.406;2023-06-14T00:25:47;30.20;34.40
25732;DHT22;13585;50.864;4.406;2023-06-14T00:28:13;30.10;34.30
25732;DHT22;13585;50.864;4.406;2023-06-14T00:30:39;30.20;34.30
25732;DHT22;13585;50.864;4.406;2023-06-14T00:33:04;30.10;34.30
25732;DHT22;13585;50.864;4.406;2023-06-14T00:35:30;30.10;34.30
25732;DHT22;13585;50.864;4.406;2023-06-14T00:37:56;30.10;35.00
25732;DHT22;13585;50.864;4.406;2023-06-14T00:40:22;30.10;34.40
25732;DHT22;13585;50.864;4.406;2023-06-14T00:42:48;30.10;34.30
25732;DHT22;13585;50.864;4.406;2023-06-14T00:45:13;30.00;34.30
25732;DHT22;13585;50.864;4.406;2023-06-14T00:47:41;30.00;34.30
25732;DHT22;13585;50.864;4.406;2023-06-14T00:50:08;30.10;34.40
25732;DHT22;13585;50.864;4.406;2023-06-14T00:52:34;30.00;34.40
25732;DHT22;13585;50.864;4.406;2023-06-14T00:55:00;30.00;34.40
25732;DHT22;13585;50.864;4.406;2023-06-14T00:57:27;30.00;34.40
25732;DHT22;13585;50.864;4.406;2023-06-14T00:59:52;30.00;34.40
25732;DHT22;13585;50.864;4.406;2023-06-14T01:02:18;30.00;34.40
25732;DHT22;13585;50.864;4.406;2023-06-14T01:04:46;30.00;34.40
25732;DHT22;13585;50.864;4.406;2023-06-14T01:09:51;30.00;34.40
25732;DHT22;13585;50.864;4.406;2023-06-14T01:12:48;30.00;34.50
25732;DHT22;13585;50.864;4.406;2023-06-14T01:15:17;30.00;34.50
25732;DHT22;13585;50.864;4.406;2023-06-14T01:17:45;30.00;34.50
25732;DHT22;13585;50.864;4.406;2023-06-14T01:20:12;30.00;34.60
25732;DHT22;13585;50.864;4.406;2023-06-14T01:22:53;30.00;34.60
25732;DHT22;13585;50.864;4.406;2023-06-14T01:25:19;29.90;34.60
25732;DHT22;13585;50.864;4.406;2023-06-14T01:27:50;29.90;34.60
25732;DHT22;13585;50.864;4.406;2023-06-14T01:30:17;29.90;34.70
25732;DHT22;13585;50.864;4.406;2023-06-14T01:32:44;29.90;34.70
25732;DHT22;13585;50.864;4.406;2023-06-14T01:35:11;29.90;34.70
25732;DHT22;13585;50.864;4.406;2023-06-14T01:37:37;29.90;34.80
25732;DHT22;13585;50.864;4.406;2023-06-14T01:40:04;29.90;34.80
25732;DHT22;13585;50.864;4.406;2023-06-14T01:42:33;29.90;34.80
25732;DHT22;13585;50.864;4.406;2023-06-14T01:45:02;29.90;34.80
25732;DHT22;13585;50.864;4.406;2023-06-14T01:47:27;29.90;34.80
25732;DHT22;13585;50.864;4.406;2023-06-14T01:49:53;29.90;34.90
25732;DHT22;13585;50.864;4.406;2023-06-14T01:52:19;29.90;34.90
25732;DHT22;13585;50.864;4.406;2023-06-14T01:54:45;29.80;34.90
25732;DHT22;13585;50.864;4.406;2023-06-14T01:57:11;29.80;34.90
25732;DHT22;13585;50.864;4.406;2023-06-14T01:59:37;29.80;34.90
25732;DHT22;13585;50.864;4.406;2023-06-14T02:02:03;29.80;34.90
25732;DHT22;13585;50.864;4.406;2023-06-14T02:04:29;29.70;34.90
25732;DHT22;13585;50.864;4.406;2023-06-14T02:06:54;29.80;35.00
25732;DHT22;13585;50.864;4.406;2023-06-14T02:09:20;29.70;35.00
25732;DHT22;13585;50.864;4.406;2023-06-14T02:11:45;29.80;35.00
25732;DHT22;13585;50.864;4.406;2023-06-14T02:14:11;29.70;35.00
25732;DHT22;13585;50.864;4.406;2023-06-14T02:16:37;29.70;35.00
25732;DHT22;13585;50.864;4.406;2023-06-14T02:19:04;29.70;35.00
25732;DHT22;13585;50.864;4.406;2023-06-14T02:21:30;29.70;35.10
25732;DHT22;13585;50.864;4.406;2023-06-14T02:23:56;29.70;35.10
25732;DHT22;13585;50.864;4.406;2023-06-14T02:26:24;29.70;35.10
25732;DHT22;13585;50.864;4.406;2023-06-14T02:28:50;29.70;35.10
25732;DHT22;13585;50.864;4.406;2023-06-14T02:31:16;29.70;35.10
25732;DHT22;13585;50.864;4.406;2023-06-14T02:33:42;29.70;35.20
25732;DHT22;13585;50.864;4.406;2023-06-14T02:36:07;29.70;35.20
25732;DHT22;13585;50.864;4.406;2023-06-14T02:38:33;29.60;35.20
25732;DHT22;13585;50.864;4.406;2023-06-14T02:40:58;29.70;35.20
25732;DHT22;13585;50.864;4.406;2023-06-14T02:43:25;29.60;35.20
25732;DHT22;13585;50.864;4.406;2023-06-14T02:45:51;29.60;35.30
25732;DHT22;13585;50.864;4.406;2023-06-14T02:48:17;29.60;35.20
25732;DHT22;13585;50.864;4.406;2023-06-14T02:50:43;29.60;35.30
25732;DHT22;13585;50.864;4.406;2023-06-14T02:53:08;29.60;35.30
25732;DHT22;13585;50.864;4.406;2023-06-14T02:55:34;29.60;35.30
25732;DHT22;13585;50.864;4.406;2023-06-14T02:58:05;29.60;35.40
25732;DHT22;13585;50.864;4.406;2023-06-14T03:00:31;29.60;35.40
25732;DHT22;13585;50.864;4.406;2023-06-14T03:02:56;29.50;35.30
25732;DHT22;13585;50.864;4.406;2023-06-14T03:05:30;29.50;35.40
25732;DHT22;13585;50.864;4.406;2023-06-14T03:07:55;29.60;35.40
25732;DHT22;13585;50.864;4.406;2023-06-14T03:10:22;29.60;35.40
25732;DHT22;13585;50.864;4.406;2023-06-14T03:12:48;29.50;35.40
25732;DHT22;13585;50.864;4.406;2023-06-14T03:15:13;29.50;35.40
25732;DHT22;13585;50.864;4.406;2023-06-14T03:17:39;29.50;35.50
25732;DHT22;13585;50.864;4.406;2023-06-14T03:20:06;29.50;35.50
25732;DHT22;13585;50.864;4.406;2023-06-14T03:22:33;29.50;35.50
25732;DHT22;13585;50.864;4.406;2023-06-14T03:24:59;29.50;36.20
25732;DHT22;13585;50.864;4.406;2023-06-14T03:27:25;29.50;35.50
25732;DHT22;13585;50.864;4.406;2023-06-14T03:29:53;29.50;35.60
25732;DHT22;13585;50.864;4.406;2023-06-14T03:32:19;29.40;35.50
25732;DHT22;13585;50.864;4.406;2023-06-14T03:34:45;29.50;35.60
25732;DHT22;13585;50.864;4.406;2023-06-14T03:37:10;29.50;35.60
25732;DHT22;13585;50.864;4.406;2023-06-14T03:39:36;29.50;35.60
25732;DHT22;13585;50.864;4.406;2023-06-14T03:42:02;29.50;35.60
25732;DHT22;13585;50.864;4.406;2023-06-14T03:44:28;29.40;35.60
25732;DHT22;13585;50.864;4.406;2023-06-14T03:46:53;29.40;35.60
25732;DHT22;13585;50.864;4.406;2023-06-14T03:49:19;29.40;35.60
25732;DHT22;13585;50.864;4.406;2023-06-14T03:51:44;29.40;35.60
25732;DHT22;13585;50.864;4.406;2023-06-14T03:54:15;29.40;35.60
25732;DHT22;13585;50.864;4.406;2023-06-14T03:56:41;29.40;35.70
25732;DHT22;13585;50.864;4.406;2023-06-14T03:59:07;29.40;35.70
25732;DHT22;13585;50.864;4.406;2023-06-14T04:01:32;29.40;35.70
25732;DHT22;13585;50.864;4.406;2023-06-14T04:03:59;29.40;35.80
25732;DHT22;13585;50.864;4.406;2023-06-14T04:06:25;29.40;35.80
25732;DHT22;13585;50.864;4.406;2023-06-14T04:08:58;29.40;35.80
25732;DHT22;13585;50.864;4.406;2023-06-14T04:11:26;29.40;35.80
25732;DHT22;13585;50.864;4.406;2023-06-14T04:13:52;29.40;35.80
25732;DHT22;13585;50.864;4.406;2023-06-14T04:16:19;29.40;35.90
25732;DHT22;13585;50.864;4.406;2023-06-14T04:18:45;29.40;35.90
25732;DHT22;13585;50.864;4.406;2023-06-14T04:21:12;29.40;35.90
25732;DHT22;13585;50.864;4.406;2023-06-14T04:23:37;29.30;35.90
25732;DHT22;13585;50.864;4.406;2023-06-14T04:26:03;29.40;36.00
25732;DHT22;13585;50.864;4.406;2023-06-14T04:28:29;29.40;36.00
25732;DHT22;13585;50.864;4.406;2023-06-14T04:30:55;29.40;36.00
25732;DHT22;13585;50.864;4.406;2023-06-14T04:33:21;29.30;35.90
25732;DHT22;13585;50.864;4.406;2023-06-14T04:35:50;29.30;35.90
25732;DHT22;13585;50.864;4.406;2023-06-14T04:38:19;29.30;35.90
25732;DHT22;13585;50.864;4.406;2023-06-14T04:40:49;29.40;36.00
25732;DHT22;13585;50.864;4.406;2023-06-14T04:43:18;29.40;36.00
25732;DHT22;13585;50.864;4.406;2023-06-14T04:45:53;29.30;35.90
25732;DHT22;13585;50.864;4.406;2023-06-14T04:48:20;29.40;36.00
25732;DHT22;13585;50.864;4.406;2023-06-14T04:50:46;29.40;36.10
25732;DHT22;13585;50.864;4.406;2023-06-14T04:53:12;29.40;36.10
25732;DHT22;13585;50.864;4.406;2023-06-14T04:55:38;29.50;36.20
25732;DHT22;13585;50.864;4.406;2023-06-14T04:58:03;29.40;36.10
25732;DHT22;13585;50.864;4.406;2023-06-14T05:00:33;29.40;36.20
25732;DHT22;13585;50.864;4.406;2023-06-14T05:02:59;29.40;36.20
25732;DHT22;13585;50.864;4.406;2023-06-14T05:05:26;29.40;36.20
25732;DHT22;13585;50.864;4.406;2023-06-14T05:07:51;29.40;36.30
25732;DHT22;13585;50.864;4.406;2023-06-14T05:10:17;29.40;36.30
25732;DHT22;13585;50.864;4.406;2023-06-14T05:12:43;29.40;36.40
25732;DHT22;13585;50.864;4.406;2023-06-14T05:15:09;29.40;36.40
25732;DHT22;13585;50.864;4.406;2023-06-14T05:17:35;29.40;36.40
25732;DHT22;13585;50.864;4.406;2023-06-14T05:20:04;29.40;36.50
25732;DHT22;13585;50.864;4.406;2023-06-14T05:22:30;29.40;36.50
25732;DHT22;13585;50.864;4.406;2023-06-14T05:24:56;29.40;36.50
25732;DHT22;13585;50.864;4.406;2023-06-14T05:27:22;29.40;36.60
25732;DHT22;13585;50.864;4.406;2023-06-14T05:29:48;29.40;36.60
25732;DHT22;13585;50.864;4.406;2023-06-14T05:32:14;29.40;36.60
25732;DHT22;13585;50.864;4.406;2023-06-14T05:34:40;29.40;36.70
25732;DHT22;13585;50.864;4.406;2023-06-14T05:37:05;29.40;36.60
25732;DHT22;13585;50.864;4.406;2023-06-14T05:39:33;29.40;36.70
25732;DHT22;13585;50.864;4.406;2023-06-14T05:41:59;29.40;36.70
25732;DHT22;13585;50.864;4.406;2023-06-14T05:44:25;29.40;36.60
25732;DHT22;13585;50.864;4.406;2023-06-14T05:46:50;29.40;36.70
25732;DHT22;13585;50.864;4.406;2023-06-14T05:49:16;29.50;36.80
25732;DHT22;13585;50.864;4.406;2023-06-14T05:51:41;29.50;36.80
25732;DHT22;13585;50.864;4.406;2023-06-14T05:54:07;29.40;36.70
25732;DHT22;13585;50.864;4.406;2023-06-14T05:56:33;29.50;36.80
25732;DHT22;13585;50.864;4.406;2023-06-14T05:58:58;29.40;36.80
25732;DHT22;13585;50.864;4.406;2023-06-14T06:01:24;29.40;36.80
25732;DHT22;13585;50.864;4.406;2023-06-14T06:03:50;29.40;36.80
25732;DHT22;13585;50.864;4.406;2023-06-14T06:06:16;29.40;36.80
25732;DHT22;13585;50.864;4.406;2023-06-14T06:08:42;29.40;36.80
25732;DHT22;13585;50.864;4.406;2023-06-14T06:11:08;29.40;36.80
25732;DHT22;13585;50.864;4.406;2023-06-14T06:13:34;29.40;36.80
25732;DHT22;13585;50.864;4.406;2023-06-14T06:16:01;29.50;36.90
25732;DHT22;13585;50.864;4.406;2023-06-14T06:18:26;29.40;36.80
25732;DHT22;13585;50.864;4.406;2023-06-14T06:20:52;29.40;36.80
25732;DHT22;13585;50.864;4.406;2023-06-14T06:23:17;29.40;36.70
25732;DHT22;13585;50.864;4.406;2023-06-14T06:25:43;29.40;36.70
25732;DHT22;13585;50.864;4.406;2023-06-14T06:28:08;29.40;36.70
25732;DHT22;13585;50.864;4.406;2023-06-14T06:30:34;29.40;36.70
25732;DHT22;13585;50.864;4.406;2023-06-14T06:33:01;29.40;36.70
25732;DHT22;13585;50.864;4.406;2023-06-14T06:35:27;29.40;36.80
25732;DHT22;13585;50.864;4.406;2023-06-14T06:37:53;29.40;36.80
25732;DHT22;13585;50.864;4.406;2023-06-14T06:40:18;29.40;36.70
25732;DHT22;13585;50.864;4.406;2023-06-14T06:42:44;29.40;36.70
25732;DHT22;13585;50.864;4.406;2023-06-14T06:45:09;29.50;36.80
25732;DHT22;13585;50.864;4.406;2023-06-14T06:47:35;29.50;36.80
25732;DHT22;13585;50.864;4.406;2023-06-14T06:50:01;29.50;36.80
25732;DHT22;13585;50.864;4.406;2023-06-14T06:52:27;29.50;36.70
25732;DHT22;13585;50.864;4.406;2023-06-14T06:54:52;29.50;36.60
25732;DHT22;13585;50.864;4.406;2023-06-14T06:57:20;29.50;36.60
25732;DHT22;13585;50.864;4.406;2023-06-14T06:59:48;29.50;36.60
25732;DHT22;13585;50.864;4.406;2023-06-14T07:02:13;29.50;36.50
25732;DHT22;13585;50.864;4.406;2023-06-14T07:04:39;29.50;36.50
25732;DHT22;13585;50.864;4.406;2023-06-14T07:07:05;29.50;36.40
25732;DHT22;13585;50.864;4.406;2023-06-14T07:09:31;29.50;36.30
25732;DHT22;13585;50.864;4.406;2023-06-14T07:11:56;29.60;36.40
25732;DHT22;13585;50.864;4.406;2023-06-14T07:14:22;29.50;36.30
25732;DHT22;13585;50.864;4.406;2023-06-14T07:16:48;29.60;36.50
25732;DHT22;13585;50.864;4.406;2023-06-14T07:19:14;29.60;36.50
25732;DHT22;13585;50.864;4.406;2023-06-14T07:21:40;29.60;36.50
25732;DHT22;13585;50.864;4.406;2023-06-14T07:24:06;29.60;36.60
25732;DHT22;13585;50.864;4.406;2023-06-14T07:26:33;29.60;36.60
25732;DHT22;13585;50.864;4.406;2023-06-14T07:28:59;29.60;36.60
25732;DHT22;13585;50.864;4.406;2023-06-14T07:31:25;29.60;36.70
25732;DHT22;13585;50.864;4.406;2023-06-14T07:33:52;29.60;36.70
25732;DHT22;13585;50.864;4.406;2023-06-14T07:36:17;29.70;36.70
25732;DHT22;13585;50.864;4.406;2023-06-14T07:38:43;29.70;36.70
25732;DHT22;13585;50.864;4.406;2023-06-14T07:41:09;29.70;36.70
25732;DHT22;13585;50.864;4.406;2023-06-14T07:43:35;29.70;36.80
25732;DHT22;13585;50.864;4.406;2023-06-14T07:46:00;29.70;36.90
25732;DHT22;13585;50.864;4.406;2023-06-14T07:48:27;29.70;36.90
25732;DHT22;13585;50.864;4.406;2023-06-14T07:50:58;29.70;36.90
25732;DHT22;13585;50.864;4.406;2023-06-14T07:53:25;29.70;36.90
25732;DHT22;13585;50.864;4.406;2023-06-14T07:55:51;29.80;37.10
25732;DHT22;13585;50.864;4.406;2023-06-14T07:58:16;29.70;37.00
25732;DHT22;13585;50.864;4.406;2023-06-14T08:00:42;29.80;37.10
25732;DHT22;13585;50.864;4.406;2023-06-14T08:03:07;29.80;37.10
25732;DHT22;13585;50.864;4.406;2023-06-14T08:05:33;29.80;37.10
25732;DHT22;13585;50.864;4.406;2023-06-14T08:07:59;29.80;37.60
25732;DHT22;13585;50.864;4.406;2023-06-14T08:10:25;29.70;36.80
25732;DHT22;13585;50.864;4.406;2023-06-14T08:12:51;29.80;37.00
25732;DHT22;13585;50.864;4.406;2023-06-14T08:15:17;29.80;36.90
25732;DHT22;13585;50.864;4.406;2023-06-14T08:17:43;29.80;36.80
25732;DHT22;13585;50.864;4.406;2023-06-14T08:20:10;29.80;36.70
25732;DHT22;13585;50.864;4.406;2023-06-14T08:22:36;29.90;36.90
25732;DHT22;13585;50.864;4.406;2023-06-14T08:25:02;29.80;36.90
25732;DHT22;13585;50.864;4.406;2023-06-14T08:27:29;29.80;36.90
25732;DHT22;13585;50.864;4.406;2023-06-14T08:29:55;29.80;36.80
25732;DHT22;13585;50.864;4.406;2023-06-14T08:32:21;29.90;36.90
25732;DHT22;13585;50.864;4.406;2023-06-14T08:34:47;29.90;36.90
25732;DHT22;13585;50.864;4.406;2023-06-14T08:37:12;29.90;37.00
25732;DHT22;13585;50.864;4.406;2023-06-14T08:39:39;29.90;36.80
25732;DHT22;13585;50.864;4.406;2023-06-14T08:42:06;29.90;36.60
25732;DHT22;13585;50.864;4.406;2023-06-14T08:44:33;29.90;36.40
25732;DHT22;13585;50.864;4.406;2023-06-14T08:46:59;29.90;36.60
25732;DHT22;13585;50.864;4.406;2023-06-14T08:49:26;29.90;36.60
25732;DHT22;13585;50.864;4.406;2023-06-14T08:51:58;29.90;36.60
25732;DHT22;13585;50.864;4.406;2023-06-14T08:54:27;29.90;36.60
25732;DHT22;13585;50.864;4.406;2023-06-14T08:56:55;29.90;36.60
25732;DHT22;13585;50.864;4.406;2023-06-14T08:59:28;29.90;36.70
25732;DHT22;13585;50.864;4.406;2023-06-14T09:01:54;29.90;36.70
25732;DHT22;13585;50.864;4.406;2023-06-14T09:04:23;29.90;36.80
25732;DHT22;13585;50.864;4.406;2023-06-14T09:06:55;29.90;36.90
25732;DHT22;13585;50.864;4.406;2023-06-14T09:09:21;29.90;37.00
25732;DHT22;13585;50.864;4.406;2023-06-14T09:11:50;30.00;37.10
25732;DHT22;13585;50.864;4.406;2023-06-14T09:14:15;30.00;37.20
25732;DHT22;13585;50.864;4.406;2023-06-14T09:16:41;30.00;37.30
25732;DHT22;13585;50.864;4.406;2023-06-14T09:19:07;29.90;37.20
25732;DHT22;13585;50.864;4.406;2023-06-14T09:21:38;29.90;37.10
25732;DHT22;13585;50.864;4.406;2023-06-14T09:24:06;29.90;37.10
25732;DHT22;13585;50.864;4.406;2023-06-14T09:26:40;30.00;37.10
25732;DHT22;13585;50.864;4.406;2023-06-14T09:29:06;29.90;37.00
25732;DHT22;13585;50.864;4.406;2023-06-14T09:31:32;29.90;37.00
25732;DHT22;13585;50.864;4.406;2023-06-14T09:33:58;29.90;37.10
25732;DHT22;13585;50.864;4.406;2023-06-14T09:36:31;30.00;37.10
25732;DHT22;13585;50.864;4.406;2023-06-14T09:38:58;29.90;37.00
25732;DHT22;13585;50.864;4.406;2023-06-14T09:41:40;30.00;37.10
25732;DHT22;13585;50.864;4.406;2023-06-14T09:44:07;30.00;37.10
25732;DHT22;13585;50.864;4.406;2023-06-14T09:46:34;30.00;37.10
25732;DHT22;13585;50.864;4.406;2023-06-14T09:49:03;30.00;37.10
25732;DHT22;13585;50.864;4.406;2023-06-14T09:51:30;29.90;36.90
25732;DHT22;13585;50.864;4.406;2023-06-14T09:53:59;30.00;36.80
25732;DHT22;13585;50.864;4.406;2023-06-14T09:56:28;30.00;36.90
25732;DHT22;13585;50.864;4.406;2023-06-14T09:58:56;30.00;36.90
25732;DHT22;13585;50.864;4.406;2023-06-14T10:01:24;30.00;36.90
25732;DHT22;13585;50.864;4.406;2023-06-14T10:03:55;30.00;37.00
25732;DHT22;13585;50.864;4.406;2023-06-14T10:06:25;30.00;36.80
25732;DHT22;13585;50.864;4.406;2023-06-14T10:08:54;30.00;36.70
25732;DHT22;13585;50.864;4.406;2023-06-14T10:11:21;30.00;37.50
25732;DHT22;13585;50.864;4.406;2023-06-14T10:13:47;30.00;36.90
25732;DHT22;13585;50.864;4.406;2023-06-14T10:16:21;30.00;36.80
25732;DHT22;13585;50.864;4.406;2023-06-14T10:19:13;30.00;36.80
25732;DHT22;13585;50.864;4.406;2023-06-14T10:24:32;30.00;37.00
25732;DHT22;13585;50.864;4.406;2023-06-14T10:26:59;30.00;37.00
25732;DHT22;13585;50.864;4.406;2023-06-14T10:29:28;30.00;37.00
25732;DHT22;13585;50.864;4.406;2023-06-14T10:31:58;30.00;37.10
25732;DHT22;13585;50.864;4.406;2023-06-14T10:37:11;30.00;37.30
25732;DHT22;13585;50.864;4.406;2023-06-14T10:39:42;30.00;37.30
25732;DHT22;13585;50.864;4.406;2023-06-14T10:42:08;30.00;37.30
25732;DHT22;13585;50.864;4.406;2023-06-14T10:44:41;30.00;37.30
25732;DHT22;13585;50.864;4.406;2023-06-14T10:47:24;30.00;37.40
25732;DHT22;13585;50.864;4.406;2023-06-14T10:49:52;30.00;37.40
25732;DHT22;13585;50.864;4.406;2023-06-14T10:52:23;30.00;37.30
25732;DHT22;13585;50.864;4.406;2023-06-14T10:55:08;30.00;37.40
25732;DHT22;13585;50.864;4.406;2023-06-14T10:57:39;30.00;37.50
25732;DHT22;13585;50.864;4.406;2023-06-14T11:00:07;30.10;37.50
25732;DHT22;13585;50.864;4.406;2023-06-14T11:05:14;30.10;37.30
25732;DHT22;13585;50.864;4.406;2023-06-14T11:07:48;30.00;37.30
25732;DHT22;13585;50.864;4.406;2023-06-14T11:12:47;30.00;37.40
25732;DHT22;13585;50.864;4.406;2023-06-14T11:15:14;30.00;37.40
25732;DHT22;13585;50.864;4.406;2023-06-14T11:17:48;30.00;37.50
25732;DHT22;13585;50.864;4.406;2023-06-14T11:20:15;30.00;37.50
25732;DHT22;13585;50.864;4.406;2023-06-14T11:22:53;30.00;37.60
25732;DHT22;13585;50.864;4.406;2023-06-14T11:25:19;30.00;37.60
25732;DHT22;13585;50.864;4.406;2023-06-14T11:27:45;30.10;37.70
25732;DHT22;13585;50.864;4.406;2023-06-14T11:30:20;30.10;37.80
25732;DHT22;13585;50.864;4.406;2023-06-14T11:32:47;30.00;37.80
25732;DHT22;13585;50.864;4.406;2023-06-14T11:35:17;30.10;37.80
25732;DHT22;13585;50.864;4.406;2023-06-14T11:37:43;30.10;37.80
25732;DHT22;13585;50.864;4.406;2023-06-14T11:40:13;30.10;37.90
25732;DHT22;13585;50.864;4.406;2023-06-14T11:42:40;30.10;37.90
25732;DHT22;13585;50.864;4.406;2023-06-14T11:45:10;30.10;38.00
25732;DHT22;13585;50.864;4.406;2023-06-14T11:47:38;30.10;38.00
25732;DHT22;13585;50.864;4.406;2023-06-14T11:50:05;30.10;37.80
25732;DHT22;13585;50.864;4.406;2023-06-14T11:52:32;30.10;37.70
25732;DHT22;13585;50.864;4.406;2023-06-14T11:54:58;30.10;37.70
25732;DHT22;13585;50.864;4.406;2023-06-14T11:57:25;30.10;37.60
25732;DHT22;13585;50.864;4.406;2023-06-14T11:59:51;30.10;37.50
25732;DHT22;13585;50.864;4.406;2023-06-14T12:02:18;30.10;37.00
25732;DHT22;13585;50.864;4.406;2023-06-14T12:04:46;30.10;37.10
25732;DHT22;13585;50.864;4.406;2023-06-14T12:07:15;30.10;37.00
25732;DHT22;13585;50.864;4.406;2023-06-14T12:12:25;30.10;36.80
25732;DHT22;13585;50.864;4.406;2023-06-14T12:14:51;30.10;36.60
25732;DHT22;13585;50.864;4.406;2023-06-14T12:17:19;30.10;36.40
25732;DHT22;13585;50.864;4.406;2023-06-14T12:19:49;30.10;36.50
25732;DHT22;13585;50.864;4.406;2023-06-14T12:22:16;30.10;36.60
25732;DHT22;13585;50.864;4.406;2023-06-14T12:24:48;30.10;36.40
25732;DHT22;13585;50.864;4.406;2023-06-14T12:27:14;30.10;36.40
25732;DHT22;13585;50.864;4.406;2023-06-14T12:29:42;30.10;36.50
25732;DHT22;13585;50.864;4.406;2023-06-14T12:32:11;30.10;36.20
25732;DHT22;13585;50.864;4.406;2023-06-14T12:34:39;30.10;36.20
25732;DHT22;13585;50.864;4.406;2023-06-14T12:37:05;30.10;36.20
25732;DHT22;13585;50.864;4.406;2023-06-14T12:39:32;30.20;36.40
25732;DHT22;13585;50.864;4.406;2023-06-14T12:41:58;30.10;36.30
25732;DHT22;13585;50.864;4.406;2023-06-14T12:44:24;30.20;36.50
25732;DHT22;13585;50.864;4.406;2023-06-14T12:46:50;30.20;36.40
25732;DHT22;13585;50.864;4.406;2023-06-14T12:49:17;30.20;36.50
25732;DHT22;13585;50.864;4.406;2023-06-14T12:51:43;30.10;36.30
25732;DHT22;13585;50.864;4.406;2023-06-14T12:54:09;30.20;36.50
25732;DHT22;13585;50.864;4.406;2023-06-14T12:56:35;30.10;36.30
25732;DHT22;13585;50.864;4.406;2023-06-14T12:59:00;30.20;36.10
25732;DHT22;13585;50.864;4.406;2023-06-14T13:01:26;30.20;36.00
25732;DHT22;13585;50.864;4.406;2023-06-14T13:03:52;30.20;35.50
25732;DHT22;13585;50.864;4.406;2023-06-14T13:06:23;30.20;35.40
25732;DHT22;13585;50.864;4.406;2023-06-14T13:08:49;30.20;34.50
25732;DHT22;13585;50.864;4.406;2023-06-14T13:11:18;30.20;34.50
25732;DHT22;13585;50.864;4.406;2023-06-14T13:13:47;30.00;34.70
25732;DHT22;13585;50.864;4.406;2023-06-14T13:16:12;30.20;34.40
25732;DHT22;13585;50.864;4.406;2023-06-14T13:18:39;30.20;34.10
25732;DHT22;13585;50.864;4.406;2023-06-14T13:21:05;30.10;33.90
25732;DHT22;13585;50.864;4.406;2023-06-14T13:23:31;30.20;34.00
25732;DHT22;13585;50.864;4.406;2023-06-14T13:25:58;30.20;34.10
25732;DHT22;13585;50.864;4.406;2023-06-14T13:28:32;30.10;34.00
25732;DHT22;13585;50.864;4.406;2023-06-14T13:31:00;30.20;33.70
25732;DHT22;13585;50.864;4.406;2023-06-14T13:33:29;30.20;33.40
25732;DHT22;13585;50.864;4.406;2023-06-14T13:35:54;30.10;33.40
25732;DHT22;13585;50.864;4.406;2023-06-14T13:38:20;30.20;33.20
25732;DHT22;13585;50.864;4.406;2023-06-14T13:40:45;30.20;33.20
25732;DHT22;13585;50.864;4.406;2023-06-14T13:43:11;30.20;33.00
25732;DHT22;13585;50.864;4.406;2023-06-14T13:45:37;30.20;32.90
25732;DHT22;13585;50.864;4.406;2023-06-14T13:48:03;30.20;32.80
25732;DHT22;13585;50.864;4.406;2023-06-14T13:50:29;30.20;32.60
25732;DHT22;13585;50.864;4.406;2023-06-14T13:52:54;30.10;32.40
25732;DHT22;13585;50.864;4.406;2023-06-14T13:55:20;30.20;32.20
25732;DHT22;13585;50.864;4.406;2023-06-14T13:57:46;30.20;31.80
25732;DHT22;13585;50.864;4.406;2023-06-14T14:00:12;30.20;31.80
25732;DHT22;13585;50.864;4.406;2023-06-14T14:02:38;30.10;31.60
25732;DHT22;13585;50.864;4.406;2023-06-14T14:05:05;30.20;31.80
25732;DHT22;13585;50.864;4.406;2023-06-14T14:07:34;30.10;31.60
25732;DHT22;13585;50.864;4.406;2023-06-14T14:10:06;30.20;31.70
25732;DHT22;13585;50.864;4.406;2023-06-14T14:12:53;30.20;31.60
25732;DHT22;13585;50.864;4.406;2023-06-14T14:15:22;30.10;31.70
25732;DHT22;13585;50.864;4.406;2023-06-14T14:17:48;30.20;31.90
25732;DHT22;13585;50.864;4.406;2023-06-14T14:20:13;30.20;31.60
25732;DHT22;13585;50.864;4.406;2023-06-14T14:22:46;30.20;31.60
25732;DHT22;13585;50.864;4.406;2023-06-14T14:25:18;30.10;31.60
25732;DHT22;13585;50.864;4.406;2023-06-14T14:27:44;30.20;31.30
25732;DHT22;13585;50.864;4.406;2023-06-14T14:30:13;30.20;31.20
25732;DHT22;13585;50.864;4.406;2023-06-14T14:32:40;30.20;31.00
25732;DHT22;13585;50.864;4.406;2023-06-14T14:35:06;30.20;30.90
25732;DHT22;13585;50.864;4.406;2023-06-14T14:37:32;30.20;30.80
25732;DHT22;13585;50.864;4.406;2023-06-14T14:39:57;30.20;30.80
25732;DHT22;13585;50.864;4.406;2023-06-14T14:42:23;30.20;30.70
25732;DHT22;13585;50.864;4.406;2023-06-14T14:44:49;30.20;30.60
25732;DHT22;13585;50.864;4.406;2023-06-14T14:47:14;30.20;30.70
25732;DHT22;13585;50.864;4.406;2023-06-14T14:49:40;30.20;30.20
25732;DHT22;13585;50.864;4.406;2023-06-14T14:52:07;30.10;30.00
25732;DHT22;13585;50.864;4.406;2023-06-14T14:54:33;30.20;30.10
25732;DHT22;13585;50.864;4.406;2023-06-14T14:56:58;30.10;30.00
25732;DHT22;13585;50.864;4.406;2023-06-14T14:59:24;30.10;30.50
25732;DHT22;13585;50.864;4.406;2023-06-14T15:01:50;30.20;30.60
25732;DHT22;13585;50.864;4.406;2023-06-14T15:04:16;30.20;30.20
25732;DHT22;13585;50.864;4.406;2023-06-14T15:06:41;30.10;30.00
25732;DHT22;13585;50.864;4.406;2023-06-14T15:09:07;30.20;30.00
25732;DHT22;13585;50.864;4.406;2023-06-14T15:11:33;30.10;30.00
25732;DHT22;13585;50.864;4.406;2023-06-14T15:13:58;30.10;30.00
25732;DHT22;13585;50.864;4.406;2023-06-14T15:16:24;30.20;30.30
25732;DHT22;13585;50.864;4.406;2023-06-14T15:18:50;30.20;30.20
25732;DHT22;13585;50.864;4.406;2023-06-14T15:21:16;30.00;30.10
25732;DHT22;13585;50.864;4.406;2023-06-14T15:23:45;30.20;30.00
25732;DHT22;13585;50.864;4.406;2023-06-14T15:26:16;30.10;30.00
25732;DHT22;13585;50.864;4.406;2023-06-14T15:28:42;30.10;30.00
25732;DHT22;13585;50.864;4.406;2023-06-14T15:31:17;30.20;30.10
25732;DHT22;13585;50.864;4.406;2023-06-14T15:33:42;30.10;30.00
25732;DHT22;13585;50.864;4.406;2023-06-14T15:36:13;30.20;30.10
25732;DHT22;13585;50.864;4.406;2023-06-14T15:38:39;30.20;30.00
25732;DHT22;13585;50.864;4.406;2023-06-14T15:41:10;30.10;30.00
25732;DHT22;13585;50.864;4.406;2023-06-14T15:43:36;30.20;30.00
25732;DHT22;13585;50.864;4.406;2023-06-14T15:46:02;30.10;30.00